Time;durP1;ratioP1;P1;durP2;ratioP2;P2;SDS_P1;SDS_P2;PMS_P1;PMS_P2;Temp;Humidity;BMP_temperature;BMP_pressure;BME280_temperature;BME280_humidity;BME280_pressure;Samples;Min_cycle;Max_cycle;Signal;HPM_P1;HPM_P2
2021/05/05 00:00:13;;;;;;;1.38;0.30;;;10.60;99.00;;;;;;4999911;28;20081;-78
2021/05/05 00:02:42;;;;;;;0.70;0.30;;;10.60;99.20;;;;;;5009067;28;20140;-80
2021/05/05 00:05:11;;;;;;;0.57;0.20;;;10.50;99.20;;;;;;4997386;28;20046;-78
2021/05/05 00:07:38;;;;;;;0.90;0.30;;;10.50;99.00;;;;;;5003854;28;20077;-79
2021/05/05 00:10:06;;;;;;;0.47;0.20;;;10.50;98.90;;;;;;5005565;28;20138;-78
2021/05/05 00:12:34;;;;;;;2.22;0.35;;;10.40;98.80;;;;;;5008896;28;20042;-79
2021/05/05 00:15:01;;;;;;;0.60;0.20;;;10.30;99.00;;;;;;4996848;28;20053;-79
2021/05/05 00:17:28;;;;;;;1.08;0.30;;;10.30;99.20;;;;;;4997416;28;20130;-80
2021/05/05 00:19:55;;;;;;;0.70;0.30;;;10.30;99.10;;;;;;5009058;28;20066;-77
2021/05/05 00:22:22;;;;;;;0.70;0.28;;;10.30;99.30;;;;;;4995689;28;20153;-79
2021/05/05 00:24:49;;;;;;;1.70;0.32;;;10.20;99.40;;;;;;4993370;28;20197;-79
2021/05/05 00:27:16;;;;;;;0.75;0.25;;;10.30;99.70;;;;;;5002519;28;20081;-77
2021/05/05 00:29:42;;;;;;;0.70;0.30;;;10.40;99.50;;;;;;5009976;28;20556;-79
2021/05/05 00:32:09;;;;;;;1.60;0.40;;;10.40;99.40;;;;;;4994205;28;20544;-78
2021/05/05 00:34:36;;;;;;;2.20;0.40;;;10.30;99.40;;;;;;5001238;28;20053;-76
2021/05/05 00:37:02;;;;;;;0.55;0.10;;;10.30;99.50;;;;;;4999922;28;20133;-79
2021/05/05 00:39:30;;;;;;;1.10;0.32;;;10.40;99.50;;;;;;5007724;28;20050;-78
2021/05/05 00:41:57;;;;;;;0.73;0.30;;;10.30;99.60;;;;;;4995718;28;20133;-78
2021/05/05 00:44:24;;;;;;;1.35;0.28;;;10.20;99.50;;;;;;5010199;28;20073;-78
2021/05/05 00:46:51;;;;;;;0.70;0.20;;;10.40;99.50;;;;;;5010454;28;20065;-78
2021/05/05 00:49:18;;;;;;;1.23;0.30;;;10.40;99.50;;;;;;5005934;28;20078;-77
2021/05/05 00:51:45;;;;;;;0.82;0.30;;;10.40;99.50;;;;;;5002400;28;20212;-78
2021/05/05 00:54:12;;;;;;;0.52;0.30;;;10.40;99.50;;;;;;5003589;28;20082;-79
2021/05/05 00:56:40;;;;;;;0.57;0.20;;;10.40;99.60;;;;;;5003466;28;20473;-78
2021/05/05 00:59:06;;;;;;;0.88;0.30;;;10.50;99.20;;;;;;5006248;28;20077;-77
2021/05/05 01:01:33;;;;;;;0.85;0.30;;;10.50;99.20;;;;;;5008750;28;20167;-76
2021/05/05 01:03:59;;;;;;;0.57;0.30;;;10.50;98.90;;;;;;4996725;28;20124;-78
2021/05/05 01:06:26;;;;;;;0.75;0.20;;;10.50;98.60;;;;;;5003381;28;20085;-77
2021/05/05 01:08:53;;;;;;;1.38;0.30;;;10.50;98.30;;;;;;5005017;28;20100;-76
2021/05/05 01:11:20;;;;;;;0.85;0.20;;;10.30;98.40;;;;;;5009266;28;20046;-78
2021/05/05 01:13:48;;;;;;;0.55;0.20;;;10.40;98.40;;;;;;5006480;28;20085;-77
2021/05/05 01:16:15;;;;;;;0.77;0.38;;;10.40;97.90;;;;;;5007347;28;20073;-77
2021/05/05 01:18:42;;;;;;;0.70;0.30;;;10.30;98.30;;;;;;5011026;28;20046;-77
2021/05/05 01:21:10;;;;;;;0.90;0.30;;;10.40;98.50;;;;;;5009079;28;20526;-78
2021/05/05 01:23:36;;;;;;;1.25;0.22;;;10.30;98.00;;;;;;4999177;28;20501;-79
2021/05/05 01:26:04;;;;;;;0.40;0.20;;;10.20;97.90;;;;;;5011311;28;20089;-79
2021/05/05 01:28:37;;;;;;;0.98;0.15;;;10.30;97.80;;;;;;5003626;28;20125;-78
2021/05/05 01:31:06;;;;;;;0.60;0.22;;;10.20;98.20;;;;;;4996331;28;20078;-78
2021/05/05 01:33:32;;;;;;;0.73;0.20;;;10.20;98.50;;;;;;5003992;28;20511;-77
2021/05/05 01:35:59;;;;;;;1.27;0.32;;;10.20;98.60;;;;;;5003671;28;20081;-78
2021/05/05 01:38:26;;;;;;;0.98;0.20;;;10.20;98.30;;;;;;5004772;28;20089;-77
2021/05/05 01:40:53;;;;;;;0.70;0.20;;;10.10;98.50;;;;;;5009402;28;20085;-78
2021/05/05 01:43:20;;;;;;;1.08;0.30;;;10.20;98.70;;;;;;4999512;28;20385;-78
2021/05/05 01:45:46;;;;;;;0.98;0.28;;;10.20;98.80;;;;;;5011291;28;20054;-78
2021/05/05 01:48:15;;;;;;;0.40;0.30;;;10.20;98.60;;;;;;4999233;28;20088;-79
2021/05/05 01:50:42;;;;;;;0.95;0.30;;;10.20;98.80;;;;;;5009451;28;20042;-76
2021/05/05 01:53:08;;;;;;;1.63;0.20;;;10.10;98.80;;;;;;4997918;28;20080;-77
2021/05/05 01:55:36;;;;;;;0.50;0.10;;;10.20;98.70;;;;;;5004228;28;20082;-78
2021/05/05 01:58:02;;;;;;;0.98;0.30;;;10.20;98.90;;;;;;5005282;28;20108;-77
2021/05/05 02:00:31;;;;;;;0.88;0.10;;;10.20;98.90;;;;;;4996547;28;20535;-76
2021/05/05 02:02:58;;;;;;;0.45;0.15;;;10.20;98.60;;;;;;4996095;28;20455;-78
2021/05/05 02:05:25;;;;;;;1.00;0.28;;;10.20;98.90;;;;;;5012470;28;20140;-78
2021/05/05 02:07:51;;;;;;;1.33;0.20;;;10.10;98.80;;;;;;5012483;28;20527;-78
2021/05/05 02:10:21;;;;;;;0.65;0.20;;;10.20;98.90;;;;;;5012338;28;20069;-78
2021/05/05 02:12:49;;;;;;;0.65;0.13;;;10.10;99.00;;;;;;4996029;28;20073;-78
2021/05/05 02:15:19;;;;;;;1.25;0.30;;;10.00;99.10;;;;;;5006333;28;20137;-78
2021/05/05 02:17:47;;;;;;;0.20;0.20;;;10.10;99.20;;;;;;5002600;28;20081;-76
2021/05/05 02:20:17;;;;;;;0.90;0.20;;;10.10;99.20;;;;;;5010250;28;20089;-79
2021/05/05 02:22:44;;;;;;;0.70;0.20;;;10.00;99.20;;;;;;4995793;28;20049;-77
2021/05/05 02:25:12;;;;;;;0.98;0.28;;;10.10;99.20;;;;;;5007301;28;20046;-77
2021/05/05 02:27:40;;;;;;;2.72;0.90;;;10.10;99.30;;;;;;5003375;28;20076;-77
2021/05/05 02:30:11;;;;;;;2.83;1.15;;;10.00;99.40;;;;;;5006000;28;20041;-78
2021/05/05 02:32:40;;;;;;;1.35;0.47;;;10.10;99.50;;;;;;5013737;28;20114;-78
2021/05/05 02:35:09;;;;;;;1.02;0.40;;;10.10;99.50;;;;;;5001292;28;20512;-77
2021/05/05 02:37:36;;;;;;;1.10;0.30;;;10.10;99.40;;;;;;5011101;28;20054;-76
2021/05/05 02:40:05;;;;;;;0.52;0.20;;;10.10;99.30;;;;;;5010043;28;20077;-77
2021/05/05 02:42:32;;;;;;;0.93;0.30;;;10.10;99.30;;;;;;5002653;28;20137;-77
2021/05/05 02:45:00;;;;;;;1.40;0.45;;;10.10;99.30;;;;;;5010836;28;20461;-78
2021/05/05 02:47:27;;;;;;;1.92;0.40;;;10.10;99.30;;;;;;4998810;28;20066;-76
2021/05/05 02:49:54;;;;;;;1.02;0.30;;;10.10;99.30;;;;;;4997591;28;20500;-77
2021/05/05 02:52:21;;;;;;;0.85;0.30;;;10.10;99.30;;;;;;5007480;28;20173;-78
2021/05/05 02:54:47;;;;;;;0.25;0.17;;;10.00;99.20;;;;;;4995738;28;20090;-77
2021/05/05 02:57:14;;;;;;;1.42;0.40;;;9.90;99.30;;;;;;5007949;28;20136;-77
2021/05/05 02:59:40;;;;;;;1.10;0.30;;;9.90;99.50;;;;;;4997287;28;20137;-77
2021/05/05 03:02:08;;;;;;;0.47;0.20;;;9.80;99.40;;;;;;5008739;28;20134;-79
2021/05/05 03:04:35;;;;;;;0.77;0.30;;;9.80;99.50;;;;;;5011726;28;20077;-78
2021/05/05 03:07:02;;;;;;;1.17;0.20;;;9.70;99.40;;;;;;4998787;28;20489;-78
2021/05/05 03:09:29;;;;;;;1.55;0.30;;;9.70;99.70;;;;;;5007143;28;20073;-76
2021/05/05 03:11:57;;;;;;;0.93;0.45;;;9.70;99.70;;;;;;5007669;28;20086;-76
2021/05/05 03:14:24;;;;;;;0.70;0.30;;;9.60;99.70;;;;;;4998671;28;20077;-77
2021/05/05 03:16:51;;;;;;;2.17;0.40;;;9.50;99.90;;;;;;5000459;28;20061;-76
2021/05/05 03:19:17;;;;;;;1.48;0.50;;;9.50;99.90;;;;;;5005731;28;20121;-78
2021/05/05 03:21:45;;;;;;;1.13;0.30;;;9.40;99.80;;;;;;4994326;28;20138;-77
2021/05/05 03:24:12;;;;;;;1.65;0.22;;;9.50;99.90;;;;;;5005796;28;20121;-78
2021/05/05 03:26:39;;;;;;;1.33;0.28;;;9.30;99.90;;;;;;5000325;28;20085;-78
2021/05/05 03:29:06;;;;;;;1.17;0.20;;;9.30;99.90;;;;;;4998606;28;20078;-78
2021/05/05 03:31:34;;;;;;;2.08;0.30;;;9.30;99.90;;;;;;5001531;28;20499;-78
2021/05/05 03:34:01;;;;;;;1.15;0.30;;;9.30;99.90;;;;;;4999104;28;20089;-80
2021/05/05 03:36:28;;;;;;;0.98;0.32;;;9.30;99.90;;;;;;5006909;28;20513;-78
2021/05/05 03:38:55;;;;;;;1.92;0.40;;;9.20;99.90;;;;;;4994475;28;20085;-79
2021/05/05 03:41:22;;;;;;;1.50;0.40;;;9.20;99.90;;;;;;5003906;28;20057;-78
2021/05/05 03:43:49;;;;;;;3.05;0.55;;;9.10;99.90;;;;;;5001394;28;20089;-78
2021/05/05 03:46:16;;;;;;;0.85;0.30;;;9.20;99.90;;;;;;4996926;28;20077;-79
2021/05/05 03:48:42;;;;;;;1.02;0.40;;;9.10;99.90;;;;;;5007615;28;20140;-79
2021/05/05 03:51:11;;;;;;;1.55;0.32;;;9.10;99.90;;;;;;4996480;28;20503;-79
2021/05/05 03:53:37;;;;;;;0.93;0.40;;;9.20;99.90;;;;;;5002298;28;20446;-79
2021/05/05 03:56:06;;;;;;;1.30;0.35;;;9.10;99.90;;;;;;5003829;28;20475;-80
2021/05/05 03:58:32;;;;;;;1.35;0.50;;;9.20;99.90;;;;;;4994604;28;20053;-79
2021/05/05 04:00:59;;;;;;;1.15;0.50;;;9.00;99.90;;;;;;5007916;28;20121;-80
2021/05/05 04:03:26;;;;;;;1.00;0.50;;;9.10;99.90;;;;;;5000629;28;20042;-77
2021/05/05 04:05:53;;;;;;;1.65;0.50;;;9.10;99.90;;;;;;5002295;28;20055;-80
2021/05/05 04:08:20;;;;;;;1.00;0.30;;;9.20;99.90;;;;;;5004761;28;20129;-80
2021/05/05 04:10:46;;;;;;;2.85;0.75;;;9.20;99.90;;;;;;4996163;28;20141;-79
2021/05/05 04:13:14;;;;;;;1.27;0.40;;;9.00;99.90;;;;;;5002015;28;20467;-79
2021/05/05 04:15:41;;;;;;;3.13;0.47;;;9.10;99.90;;;;;;5002384;28;20152;-78
2021/05/05 04:18:08;;;;;;;2.75;0.45;;;9.20;99.90;;;;;;5000407;28;20080;-80
2021/05/05 04:20:35;;;;;;;1.17;0.40;;;9.10;99.90;;;;;;5009382;28;20109;-79
2021/05/05 04:23:02;;;;;;;2.78;0.60;;;9.10;99.90;;;;;;4997187;28;20045;-78
2021/05/05 04:25:29;;;;;;;0.88;0.40;;;8.90;99.90;;;;;;5005420;28;20088;-79
2021/05/05 04:27:55;;;;;;;2.25;0.60;;;9.10;99.90;;;;;;4996413;28;20508;-78
2021/05/05 04:30:23;;;;;;;2.22;0.80;;;9.00;99.90;;;;;;5003038;28;20167;-78
2021/05/05 04:32:52;;;;;;;2.10;0.50;;;8.90;99.90;;;;;;5012736;28;20093;-78
2021/05/05 04:35:20;;;;;;;1.88;0.50;;;8.90;99.90;;;;;;5012937;28;20050;-78
2021/05/05 04:37:48;;;;;;;2.25;0.60;;;8.70;99.90;;;;;;5012920;28;20109;-78
2021/05/05 04:40:15;;;;;;;2.50;0.60;;;8.90;99.90;;;;;;5012887;28;20077;-77
2021/05/05 04:42:41;;;;;;;1.15;0.38;;;8.80;99.90;;;;;;5013463;28;20135;-78
2021/05/05 04:45:11;;;;;;;1.95;0.50;;;8.80;99.90;;;;;;5016457;28;20100;-77
2021/05/05 04:47:39;;;;;;;1.73;0.55;;;8.80;99.90;;;;;;5016517;28;20050;-78
2021/05/05 04:50:08;;;;;;;3.17;0.80;;;8.80;99.90;;;;;;5016395;28;20080;-77
2021/05/05 04:52:35;;;;;;;2.00;0.50;;;8.80;99.90;;;;;;5016419;28;20108;-77
2021/05/05 04:55:02;;;;;;;2.20;0.60;;;8.80;99.90;;;;;;5016275;28;20058;-79
2021/05/05 04:57:29;;;;;;;1.98;0.60;;;8.80;99.90;;;;;;5016461;28;20497;-78
2021/05/05 04:59:56;;;;;;;3.40;0.80;;;8.80;99.90;;;;;;5016432;28;20069;-78
2021/05/05 05:02:22;;;;;;;3.03;0.80;;;8.80;99.90;;;;;;5016096;28;20462;-78
2021/05/05 05:04:50;;;;;;;2.20;0.60;;;8.60;99.90;;;;;;5016170;28;20057;-78
2021/05/05 05:07:16;;;;;;;2.72;0.60;;;8.70;99.90;;;;;;5016428;28;20092;-78
2021/05/05 05:09:43;;;;;;;1.58;0.50;;;8.70;99.90;;;;;;5016092;28;20077;-78
2021/05/05 05:12:10;;;;;;;1.30;0.57;;;8.60;99.90;;;;;;5016063;28;20104;-78
2021/05/05 05:14:37;;;;;;;2.08;0.50;;;8.60;99.90;;;;;;5016040;28;20081;-78
2021/05/05 05:17:04;;;;;;;2.00;0.65;;;8.60;99.90;;;;;;5016008;28;20408;-79
2021/05/05 05:19:31;;;;;;;1.73;0.50;;;8.60;99.90;;;;;;5015845;28;20137;-79
2021/05/05 05:22:00;;;;;;;1.10;0.50;;;8.60;99.90;;;;;;5015724;28;20136;-79
2021/05/05 05:24:27;;;;;;;2.50;0.65;;;8.70;99.90;;;;;;5015742;28;20060;-79
2021/05/05 05:26:53;;;;;;;1.55;0.40;;;8.60;99.90;;;;;;5015885;28;20493;-79
2021/05/05 05:29:20;;;;;;;3.00;0.65;;;8.70;99.90;;;;;;5015374;28;20149;-79
2021/05/05 05:31:48;;;;;;;0.95;0.40;;;8.70;99.90;;;;;;5005246;28;20149;-79
2021/05/05 05:34:15;;;;;;;0.80;0.50;;;8.70;99.90;;;;;;5011774;28;20133;-79
2021/05/05 05:36:43;;;;;;;3.00;0.60;;;8.70;99.90;;;;;;5014571;28;20081;-79
2021/05/05 05:39:11;;;;;;;2.80;0.70;;;8.80;99.90;;;;;;5015163;28;20077;-79
2021/05/05 05:41:37;;;;;;;2.33;0.55;;;8.80;99.90;;;;;;5010858;28;20128;-79
2021/05/05 05:44:05;;;;;;;0.57;0.30;;;8.70;99.90;;;;;;5003637;28;20153;-79
2021/05/05 05:46:32;;;;;;;1.58;0.60;;;8.70;99.90;;;;;;4995572;28;20058;-77
2021/05/05 05:48:59;;;;;;;2.88;0.65;;;8.80;99.90;;;;;;4995454;28;20138;-79
2021/05/05 05:51:25;;;;;;;2.67;0.60;;;8.80;99.90;;;;;;4995225;28;20081;-78
2021/05/05 05:53:52;;;;;;;2.67;0.63;;;8.80;99.90;;;;;;4994490;28;20136;-79
2021/05/05 05:56:20;;;;;;;2.88;0.60;;;8.70;99.90;;;;;;4995010;28;20081;-81
2021/05/05 05:58:46;;;;;;;2.60;0.68;;;8.60;99.90;;;;;;5006862;28;20141;-77
2021/05/05 06:01:13;;;;;;;2.40;0.70;;;8.80;99.90;;;;;;4999168;28;20081;-79
2021/05/05 06:03:39;;;;;;;3.25;0.80;;;8.80;99.90;;;;;;5014767;28;20077;-79
2021/05/05 06:06:06;;;;;;;1.85;0.50;;;8.90;99.90;;;;;;5014603;28;20151;-78
2021/05/05 06:08:33;;;;;;;1.05;0.40;;;8.90;99.90;;;;;;5014462;28;20128;-79
2021/05/05 06:11:00;;;;;;;1.45;0.50;;;8.90;99.90;;;;;;5000075;28;20077;-80
2021/05/05 06:13:28;;;;;;;1.65;0.50;;;9.10;99.90;;;;;;4994572;28;20082;-77
2021/05/05 06:15:54;;;;;;;1.92;0.60;;;9.00;99.90;;;;;;4995533;28;20084;-78
2021/05/05 06:18:21;;;;;;;3.35;0.90;;;9.10;99.80;;;;;;4994612;28;20144;-77
2021/05/05 06:20:48;;;;;;;1.67;0.50;;;9.10;99.20;;;;;;4994775;28;20054;-77
2021/05/05 06:23:14;;;;;;;3.30;0.70;;;9.10;99.30;;;;;;4995011;28;20050;-77
2021/05/05 06:25:41;;;;;;;1.83;0.77;;;9.10;99.30;;;;;;4995507;28;20123;-77
2021/05/05 06:28:08;;;;;;;2.10;0.52;;;8.90;99.30;;;;;;5013951;28;20490;-78
2021/05/05 06:30:35;;;;;;;1.67;0.45;;;8.90;99.30;;;;;;5012514;28;20126;-77
2021/05/05 06:33:02;;;;;;;1.33;0.47;;;9.00;99.70;;;;;;5007690;28;20133;-77
2021/05/05 06:35:29;;;;;;;2.38;0.50;;;9.00;99.50;;;;;;5007827;28;20066;-77
2021/05/05 06:37:56;;;;;;;2.90;0.55;;;9.00;99.40;;;;;;5013839;28;20042;-78
2021/05/05 06:40:23;;;;;;;1.52;0.47;;;9.00;99.50;;;;;;4994092;28;20503;-79
2021/05/05 06:42:50;;;;;;;1.88;0.70;;;9.10;99.10;;;;;;4994307;28;20118;-78
2021/05/05 06:45:19;;;;;;;2.33;0.50;;;9.10;99.10;;;;;;4994297;28;20054;-78
2021/05/05 06:47:47;;;;;;;3.05;0.60;;;9.10;98.60;;;;;;4994278;28;20082;-78
2021/05/05 06:50:15;;;;;;;1.55;0.45;;;9.20;98.80;;;;;;4995442;28;20051;-78
2021/05/05 06:52:42;;;;;;;2.60;0.60;;;9.20;98.80;;;;;;5013598;28;20076;-77
2021/05/05 06:55:11;;;;;;;2.05;0.60;;;9.10;98.60;;;;;;5013407;28;20496;-79
2021/05/05 06:57:38;;;;;;;1.17;0.43;;;9.10;98.60;;;;;;5013710;28;20058;-79
2021/05/05 07:00:08;;;;;;;3.53;0.52;;;9.20;98.90;;;;;;5013600;28;20049;-78
2021/05/05 07:02:35;;;;;;;2.72;0.60;;;9.20;98.50;;;;;;5013198;28;20060;-78
2021/05/05 07:05:03;;;;;;;1.98;0.50;;;9.20;98.20;;;;;;5012386;28;20506;-77
2021/05/05 07:07:30;;;;;;;3.63;1.10;;;9.30;98.40;;;;;;5014348;28;20133;-78
2021/05/05 07:09:57;;;;;;;2.55;0.70;;;9.20;97.70;;;;;;5012813;28;20450;-79
2021/05/05 07:12:24;;;;;;;1.38;0.63;;;9.30;97.50;;;;;;5014089;28;20129;-77
2021/05/05 07:14:51;;;;;;;2.47;0.70;;;9.20;98.10;;;;;;5013392;28;20133;-78
2021/05/05 07:17:18;;;;;;;1.85;0.55;;;9.30;98.10;;;;;;5013552;28;20053;-78
2021/05/05 07:19:45;;;;;;;2.55;0.70;;;9.30;98.20;;;;;;5013625;28;20085;-78
2021/05/05 07:22:12;;;;;;;2.88;0.88;;;9.30;98.10;;;;;;5013168;28;20116;-79
2021/05/05 07:24:41;;;;;;;2.80;0.60;;;9.30;98.10;;;;;;5013536;28;20104;-78
2021/05/05 07:27:08;;;;;;;2.42;0.70;;;9.30;97.70;;;;;;5009507;28;20070;-78
2021/05/05 07:29:35;;;;;;;2.35;0.73;;;9.40;97.80;;;;;;4993318;28;20126;-79
2021/05/05 07:32:01;;;;;;;4.35;1.00;;;9.50;97.70;;;;;;4993980;28;20054;-79
2021/05/05 07:34:28;;;;;;;3.60;0.80;;;9.60;97.10;;;;;;4993614;28;20516;-79
2021/05/05 07:37:01;;;;;;;3.40;1.00;;;9.60;97.30;;;;;;4994115;28;20138;-78
2021/05/05 07:39:46;;;;;;;5.15;1.20;;;9.80;97.20;;;;;;4993711;28;20127;-77
2021/05/05 07:47:49;;;;;;;2.70;0.88;;;9.70;96.30;;;;;;4993461;28;19921;-80
2021/05/05 07:50:16;;;;;;;5.22;1.00;;;9.90;95.70;;;;;;4993966;28;20050;-79
2021/05/05 07:52:42;;;;;;;4.90;1.13;;;9.90;95.50;;;;;;4996630;28;20078;-78
2021/05/05 07:55:11;;;;;;;6.72;1.30;;;9.80;95.90;;;;;;5011678;28;20482;-77
2021/05/05 07:57:42;;;;;;;4.00;1.20;;;9.80;95.50;;;;;;4993986;28;20082;-78
2021/05/05 08:00:11;;;;;;;4.80;1.10;;;9.70;95.30;;;;;;5012632;28;20133;-78
2021/05/05 08:02:38;;;;;;;4.47;1.08;;;9.60;95.70;;;;;;5012566;28;20108;-76
2021/05/05 08:05:05;;;;;;;3.92;1.10;;;9.60;96.10;;;;;;5013288;28;20456;-78
2021/05/05 08:07:32;;;;;;;5.40;1.05;;;9.60;95.60;;;;;;5012694;28;20081;-78
2021/05/05 08:09:59;;;;;;;5.88;1.40;;;9.70;95.20;;;;;;5012811;28;20096;-79
2021/05/05 08:12:27;;;;;;;7.05;1.23;;;9.80;92.80;;;;;;5011809;28;20096;-80
2021/05/05 08:14:55;;;;;;;3.45;1.10;;;9.70;92.50;;;;;;5011572;28;20050;-78
2021/05/05 08:17:22;;;;;;;4.80;1.20;;;9.70;91.70;;;;;;5013062;28;20165;-79
2021/05/05 08:19:49;;;;;;;6.38;1.25;;;9.60;88.70;;;;;;5015599;28;20080;-79
2021/05/05 08:22:16;;;;;;;6.68;1.20;;;9.60;89.70;;;;;;5016460;28;20081;-77
2021/05/05 08:24:43;;;;;;;4.15;1.25;;;9.50;88.30;;;;;;5017272;28;20053;-76
2021/05/05 08:27:10;;;;;;;6.15;1.40;;;9.50;87.40;;;;;;5015429;28;20139;-78
2021/05/05 08:29:37;;;;;;;4.38;1.27;;;9.40;89.20;;;;;;5016294;28;20088;-77
2021/05/05 08:32:06;;;;;;;7.55;1.50;;;9.50;86.80;;;;;;5016708;28;20093;-78
2021/05/05 08:34:33;;;;;;;6.78;1.30;;;9.40;85.50;;;;;;5016858;28;20491;-77
2021/05/05 08:37:00;;;;;;;4.65;1.02;;;9.50;85.90;;;;;;5014531;28;20080;-79
2021/05/05 08:39:27;;;;;;;5.00;1.10;;;9.50;87.10;;;;;;5016790;28;20096;-77
2021/05/05 08:41:55;;;;;;;3.45;1.20;;;9.60;83.80;;;;;;5015996;28;20591;-79
2021/05/05 08:44:23;;;;;;;5.53;1.20;;;9.70;81.20;;;;;;5016343;28;20479;-78
2021/05/05 08:46:50;;;;;;;5.28;1.20;;;9.70;80.30;;;;;;5016355;28;20046;-78
2021/05/05 08:49:18;;;;;;;3.80;1.10;;;9.70;81.80;;;;;;5016259;28;20082;-79
2021/05/05 08:51:46;;;;;;;4.65;1.20;;;9.70;84.10;;;;;;5014277;28;20567;-79
2021/05/05 08:54:14;;;;;;;5.55;1.48;;;9.70;82.20;;;;;;5016108;28;20137;-78
2021/05/05 08:56:41;;;;;;;4.28;1.15;;;9.70;82.30;;;;;;5015796;28;20100;-77
2021/05/05 08:59:10;;;;;;;5.53;1.30;;;9.70;79.30;;;;;;5015904;28;20054;-78
2021/05/05 09:01:40;;;;;;;4.25;1.20;;;9.60;80.40;;;;;;5015857;28;20124;-78
2021/05/05 09:04:08;;;;;;;4.82;1.10;;;9.50;79.10;;;;;;5013409;28;20149;-79
2021/05/05 09:06:47;;;;;;;4.93;1.33;;;9.40;81.00;;;;;;4996730;28;20604;-79
2021/05/05 09:09:32;;;;;;;5.13;1.10;;;9.30;82.50;;;;;;4996297;28;20146;-79
2021/05/05 09:12:01;;;;;;;6.85;1.30;;;9.30;84.10;;;;;;4997369;28;20315;-77
2021/05/05 09:14:28;;;;;;;6.07;1.60;;;9.20;87.30;;;;;;4999240;28;20399;-79
2021/05/05 09:16:55;;;;;;;5.15;1.27;;;9.10;89.20;;;;;;5012998;28;20428;-79
2021/05/05 09:19:23;;;;;;;5.18;1.20;;;9.00;90.40;;;;;;5013565;28;20062;-78
2021/05/05 09:21:52;;;;;;;6.55;1.30;;;9.00;90.60;;;;;;5013062;28;20086;-79
2021/05/05 09:24:28;;;;;;;4.05;1.20;;;9.00;90.90;;;;;;5012019;28;20134;-79
2021/05/05 09:26:58;;;;;;;5.25;1.30;;;9.10;90.90;;;;;;5000584;28;20050;-76
2021/05/05 09:29:44;;;;;;;6.55;1.75;;;9.20;90.20;;;;;;4991745;28;20073;-79
2021/05/05 09:32:13;;;;;;;7.78;2.55;;;9.20;88.70;;;;;;4993152;28;20076;-78
2021/05/05 09:34:41;;;;;;;4.15;1.67;;;9.30;88.50;;;;;;4993585;28;20046;-78
2021/05/05 09:37:12;;;;;;;6.68;1.30;;;9.30;88.30;;;;;;5008721;28;20050;-78
2021/05/05 09:39:40;;;;;;;4.35;1.05;;;9.40;88.70;;;;;;4994685;28;20439;-76
2021/05/05 09:42:30;;;;;;;4.60;1.33;;;9.40;88.40;;;;;;4999466;28;20488;-78
2021/05/05 09:44:59;;;;;;;2.90;1.02;;;9.50;87.30;;;;;;5012866;28;20050;-78
2021/05/05 09:47:45;;;;;;;4.18;1.00;;;9.60;81.80;;;;;;5027947;28;20050;-79
2021/05/05 09:50:39;;;;;;;3.70;1.30;;;9.70;78.40;;;;;;5011403;28;20042;-77
2021/05/05 09:53:21;;;;;;;4.57;0.90;;;9.70;79.00;;;;;;5012205;28;20419;-78
2021/05/05 09:56:10;;;;;;;5.90;1.25;;;9.80;78.10;;;;;;5010760;28;20457;-79
2021/05/05 09:58:40;;;;;;;4.10;1.05;;;10.00;72.40;;;;;;5013384;28;20153;-78
2021/05/05 10:01:20;;;;;;;5.00;1.23;;;10.10;72.50;;;;;;5012623;28;20046;-78
2021/05/05 10:03:53;;;;;;;3.70;1.38;;;10.20;69.60;;;;;;5012990;28;20120;-79
2021/05/05 10:06:31;;;;;;;3.35;1.02;;;10.20;64.50;;;;;;5010327;28;20056;-79
2021/05/05 10:09:00;;;;;;;3.75;1.15;;;10.20;64.50;;;;;;5012411;28;20050;-78
2021/05/05 10:11:30;;;;;;;3.38;1.02;;;10.30;63.70;;;;;;5012208;28;20153;-78
2021/05/05 10:14:01;;;;;;;3.42;0.90;;;10.30;59.10;;;;;;5012637;28;20065;-77
2021/05/05 10:16:32;;;;;;;6.28;1.08;;;10.20;59.00;;;;;;5011400;28;20046;-79
2021/05/05 10:19:00;;;;;;;5.07;1.10;;;10.30;58.60;;;;;;5011835;28;20088;-78
2021/05/05 10:21:29;;;;;;;3.95;1.00;;;10.30;60.30;;;;;;4997833;28;20050;-79
2021/05/05 10:23:58;;;;;;;4.43;1.02;;;10.40;61.80;;;;;;4992706;28;20042;-79
2021/05/05 10:26:27;;;;;;;6.68;1.20;;;10.40;57.60;;;;;;4992512;28;20057;-78
2021/05/05 10:28:55;;;;;;;4.68;0.93;;;10.50;58.90;;;;;;4992449;28;20570;-77
2021/05/05 10:31:27;;;;;;;4.82;1.10;;;10.50;60.00;;;;;;4991114;28;20193;-76
2021/05/05 10:33:57;;;;;;;3.50;1.10;;;10.60;58.90;;;;;;4993534;28;20064;-77
2021/05/05 10:36:39;;;;;;;4.07;0.90;;;10.70;61.10;;;;;;4992986;28;20057;-78
2021/05/05 10:39:32;;;;;;;2.75;0.95;;;10.70;55.70;;;;;;4993051;28;20054;-78
2021/05/05 10:42:11;;;;;;;4.55;1.30;;;10.70;56.00;;;;;;4992196;28;20054;-77
2021/05/05 10:44:42;;;;;;;3.90;1.05;;;10.70;57.50;;;;;;4991820;28;20050;-78
2021/05/05 10:47:27;;;;;;;3.13;1.08;;;10.70;56.10;;;;;;4991217;28;20062;-78
2021/05/05 10:50:15;;;;;;;3.72;1.05;;;10.80;57.10;;;;;;5004093;28;20488;-77
2021/05/05 10:53:17;;;;;;;4.35;1.30;;;11.00;55.20;;;;;;5012256;28;20108;-77
2021/05/05 10:55:50;;;;;;;5.53;1.10;;;11.10;57.40;;;;;;4992305;28;20128;-77
2021/05/05 10:58:23;;;;;;;4.80;1.00;;;11.20;56.40;;;;;;4991761;28;20050;-77
2021/05/05 11:00:59;;;;;;;4.03;1.10;;;11.20;54.70;;;;;;4992437;28;20148;-78
2021/05/05 11:03:54;;;;;;;4.15;1.00;;;11.20;54.40;;;;;;4990609;28;20224;-78
2021/05/05 11:06:53;;;;;;;3.25;1.10;;;11.20;54.60;;;;;;4991616;28;20402;-79
2021/05/05 11:09:44;;;;;;;3.40;1.00;;;11.20;54.90;;;;;;4992034;28;20050;-78
2021/05/05 11:12:39;;;;;;;3.80;0.98;;;11.30;54.70;;;;;;4991564;28;20050;-78
2021/05/05 11:15:08;;;;;;;2.78;0.82;;;11.40;54.20;;;;;;4991790;28;20046;-78
2021/05/05 11:17:35;;;;;;;2.72;0.93;;;11.40;53.40;;;;;;4984233;28;20142;-77
2021/05/05 11:20:02;;;;;;;3.25;0.95;;;11.50;53.60;;;;;;4971976;28;20074;-78
2021/05/05 11:22:46;;;;;;;4.22;0.90;;;11.40;54.00;;;;;;4972240;28;20145;-78
2021/05/05 11:25:35;;;;;;;2.50;0.90;;;11.40;54.20;;;;;;4971911;28;20047;-78
2021/05/05 11:28:02;;;;;;;4.38;1.10;;;11.30;59.30;;;;;;4972058;28;20086;-77
2021/05/05 11:30:42;;;;;;;4.03;1.08;;;11.00;71.30;;;;;;4973361;28;20138;-77
2021/05/05 11:33:12;;;;;;;4.28;0.73;;;10.60;78.00;;;;;;4971587;28;20437;-80
2021/05/05 11:35:41;;;;;;;1.98;0.70;;;10.10;84.70;;;;;;4971307;28;20128;-77
2021/05/05 11:38:23;;;;;;;1.95;0.70;;;9.90;89.80;;;;;;4970126;28;20478;-75
2021/05/05 11:41:09;;;;;;;2.00;0.70;;;9.60;90.60;;;;;;4970729;28;20051;-77
2021/05/05 11:43:35;;;;;;;3.17;0.77;;;9.40;89.20;;;;;;4970596;28;20479;-78
2021/05/05 11:46:04;;;;;;;3.45;0.60;;;9.10;90.00;;;;;;4970938;28;20145;-77
2021/05/05 11:48:38;;;;;;;1.73;0.70;;;9.00;90.10;;;;;;4973843;28;20651;-76
2021/05/05 11:51:23;;;;;;;1.50;0.65;;;8.70;90.60;;;;;;4990635;28;20058;-77
2021/05/05 11:53:51;;;;;;;1.83;0.60;;;8.70;90.20;;;;;;4997692;28;20065;-78
2021/05/05 11:56:23;;;;;;;3.35;0.80;;;8.70;89.90;;;;;;5010615;28;20073;-76
2021/05/05 11:58:59;;;;;;;2.50;0.77;;;8.80;87.10;;;;;;5009451;28;20093;-79
2021/05/05 12:01:46;;;;;;;2.33;0.68;;;8.80;87.10;;;;;;5007345;28;20149;-77
2021/05/05 12:04:19;;;;;;;2.33;0.80;;;8.90;85.10;;;;;;4994198;28;20042;-79
2021/05/05 12:06:48;;;;;;;3.15;0.80;;;9.00;86.60;;;;;;5010076;28;20053;-79
2021/05/05 12:09:27;;;;;;;2.42;0.70;;;9.00;85.90;;;;;;5010100;28;20134;-76
2021/05/05 12:12:26;;;;;;;2.28;0.70;;;9.10;85.10;;;;;;5010279;28;20132;-76
2021/05/05 12:14:55;;;;;;;1.50;0.60;;;9.00;85.20;;;;;;5010448;28;20054;-78
2021/05/05 12:17:27;;;;;;;1.08;0.50;;;9.10;82.50;;;;;;5009297;28;20046;-77
2021/05/05 12:20:04;;;;;;;3.10;1.10;;;9.20;84.30;;;;;;4991032;28;20469;-79
2021/05/05 12:22:33;;;;;;;4.15;0.88;;;9.40;83.70;;;;;;4990511;28;20697;-78
2021/05/05 12:25:18;;;;;;;2.42;0.68;;;9.50;82.50;;;;;;4990836;28;20077;-78
2021/05/05 12:28:15;;;;;;;1.92;0.65;;;9.70;80.80;;;;;;4989371;28;20042;-78
2021/05/05 12:30:49;;;;;;;2.72;0.90;;;9.80;79.10;;;;;;4967074;28;20410;-78
2021/05/05 12:33:20;;;;;;;2.78;0.80;;;10.00;78.90;;;;;;4991672;28;20055;-77
2021/05/05 12:35:48;;;;;;;2.60;0.80;;;10.10;80.10;;;;;;4990706;28;20074;-77
2021/05/05 12:38:18;;;;;;;3.13;1.00;;;10.40;80.10;;;;;;4989281;28;20082;-76
2021/05/05 12:40:46;;;;;;;2.53;0.90;;;10.60;77.70;;;;;;4989174;28;20156;-77
2021/05/05 12:43:27;;;;;;;2.88;0.70;;;10.80;75.90;;;;;;4990123;28;20138;-78
2021/05/05 12:45:56;;;;;;;3.03;0.90;;;11.00;73.00;;;;;;4991572;28;20085;-78
2021/05/05 12:48:30;;;;;;;3.05;1.05;;;11.20;75.30;;;;;;4996708;28;20074;-79
2021/05/05 12:51:12;;;;;;;2.37;0.80;;;11.30;74.30;;;;;;5008607;28;20085;-76
2021/05/05 12:54:02;;;;;;;2.50;0.70;;;11.20;74.30;;;;;;5003329;28;20142;-77
2021/05/05 12:56:43;;;;;;;2.75;0.80;;;11.20;76.60;;;;;;4986648;28;20055;-78
2021/05/05 12:59:12;;;;;;;1.90;0.80;;;11.30;77.00;;;;;;4990842;28;20121;-77
2021/05/05 13:01:39;;;;;;;3.00;0.77;;;11.40;73.10;;;;;;4990154;28;20133;-77
2021/05/05 13:04:07;;;;;;;1.98;0.70;;;11.40;75.90;;;;;;5007609;28;20053;-78
2021/05/05 13:06:43;;;;;;;3.67;0.77;;;11.50;73.20;;;;;;5006333;28;20145;-79
2021/05/05 13:09:19;;;;;;;1.65;0.70;;;11.70;71.80;;;;;;5010941;28;20072;-76
2021/05/05 13:11:49;;;;;;;2.85;0.80;;;11.90;68.60;;;;;;5011824;28;20136;-76